sensor_id;sensor_type;location;lat;lon;timestamp;P1;durP1;ratioP1;P2;durP2;ratioP2
37943;SDS011;23767;42.024;23.086;2023-05-14T00:01:11;8.93;;;5.03;;
37943;SDS011;23767;42.024;23.086;2023-05-14T00:03:37;10.75;;;5.13;;
37943;SDS011;23767;42.024;23.086;2023-05-14T00:06:05;6.97;;;4.07;;
37943;SDS011;23767;42.024;23.086;2023-05-14T00:08:32;8.13;;;4.75;;
37943;SDS011;23767;42.024;23.086;2023-05-14T00:10:58;6.60;;;4.40;;
37943;SDS011;23767;42.024;23.086;2023-05-14T00:13:24;9.75;;;4.20;;
37943;SDS011;23767;42.024;23.086;2023-05-14T00:15:50;7.03;;;4.30;;
37943;SDS011;23767;42.024;23.086;2023-05-14T00:18:16;7.65;;;4.63;;
37943;SDS011;23767;42.024;23.086;2023-05-14T00:20:42;7.65;;;4.47;;
37943;SDS011;23767;42.024;23.086;2023-05-14T00:23:08;8.65;;;4.82;;
37943;SDS011;23767;42.024;23.086;2023-05-14T00:25:35;8.52;;;4.68;;
37943;SDS011;23767;42.024;23.086;2023-05-14T00:28:01;7.20;;;4.50;;
37943;SDS011;23767;42.024;23.086;2023-05-14T00:30:28;6.43;;;4.53;;
37943;SDS011;23767;42.024;23.086;2023-05-14T00:32:54;8.50;;;4.70;;
37943;SDS011;23767;42.024;23.086;2023-05-14T00:35:20;7.43;;;4.97;;
37943;SDS011;23767;42.024;23.086;2023-05-14T00:37:46;8.75;;;5.28;;
37943;SDS011;23767;42.024;23.086;2023-05-14T00:40:12;8.27;;;5.10;;
37943;SDS011;23767;42.024;23.086;2023-05-14T00:42:38;9.45;;;5.28;;
37943;SDS011;23767;42.024;23.086;2023-05-14T00:45:05;11.75;;;5.15;;
37943;SDS011;23767;42.024;23.086;2023-05-14T00:47:31;8.23;;;5.15;;
37943;SDS011;23767;42.024;23.086;2023-05-14T00:50:01;10.65;;;5.65;;
37943;SDS011;23767;42.024;23.086;2023-05-14T00:52:28;9.38;;;5.00;;
37943;SDS011;23767;42.024;23.086;2023-05-14T00:54:54;8.52;;;5.47;;
37943;SDS011;23767;42.024;23.086;2023-05-14T00:57:20;9.23;;;5.10;;
37943;SDS011;23767;42.024;23.086;2023-05-14T00:59:46;7.55;;;5.40;;
37943;SDS011;23767;42.024;23.086;2023-05-14T01:02:13;9.93;;;5.45;;
37943;SDS011;23767;42.024;23.086;2023-05-14T01:04:39;8.18;;;5.50;;
37943;SDS011;23767;42.024;23.086;2023-05-14T01:09:35;7.78;;;5.32;;
37943;SDS011;23767;42.024;23.086;2023-05-14T01:16:57;6.80;;;5.20;;
37943;SDS011;23767;42.024;23.086;2023-05-14T01:19:45;8.77;;;4.70;;
37943;SDS011;23767;42.024;23.086;2023-05-14T01:22:10;7.95;;;5.55;;
37943;SDS011;23767;42.024;23.086;2023-05-14T01:24:36;8.43;;;5.60;;
37943;SDS011;23767;42.024;23.086;2023-05-14T01:27:24;6.68;;;4.88;;
37943;SDS011;23767;42.024;23.086;2023-05-14T01:30:14;7.32;;;5.00;;
37943;SDS011;23767;42.024;23.086;2023-05-14T01:32:38;8.52;;;5.20;;
37943;SDS011;23767;42.024;23.086;2023-05-14T01:35:05;7.93;;;5.55;;
37943;SDS011;23767;42.024;23.086;2023-05-14T01:37:31;6.30;;;4.70;;
37943;SDS011;23767;42.024;23.086;2023-05-14T01:39:58;8.93;;;5.53;;
37943;SDS011;23767;42.024;23.086;2023-05-14T01:42:24;10.45;;;5.53;;
37943;SDS011;23767;42.024;23.086;2023-05-14T01:44:50;7.63;;;5.13;;
37943;SDS011;23767;42.024;23.086;2023-05-14T01:47:16;6.97;;;4.95;;
37943;SDS011;23767;42.024;23.086;2023-05-14T01:49:42;6.53;;;4.88;;
37943;SDS011;23767;42.024;23.086;2023-05-14T01:52:08;7.68;;;5.30;;
37943;SDS011;23767;42.024;23.086;2023-05-14T01:54:35;8.50;;;5.22;;
37943;SDS011;23767;42.024;23.086;2023-05-14T01:57:01;6.40;;;5.00;;
37943;SDS011;23767;42.024;23.086;2023-05-14T01:59:27;8.52;;;5.75;;
37943;SDS011;23767;42.024;23.086;2023-05-14T02:01:53;7.88;;;5.80;;
37943;SDS011;23767;42.024;23.086;2023-05-14T02:04:20;8.45;;;5.47;;
37943;SDS011;23767;42.024;23.086;2023-05-14T02:06:46;8.45;;;5.90;;
37943;SDS011;23767;42.024;23.086;2023-05-14T02:09:12;9.07;;;5.60;;
37943;SDS011;23767;42.024;23.086;2023-05-14T02:11:38;8.73;;;5.63;;
37943;SDS011;23767;42.024;23.086;2023-05-14T02:14:04;6.93;;;5.25;;
37943;SDS011;23767;42.024;23.086;2023-05-14T02:16:30;8.98;;;6.07;;
37943;SDS011;23767;42.024;23.086;2023-05-14T02:18:56;10.48;;;5.43;;
37943;SDS011;23767;42.024;23.086;2023-05-14T02:21:22;6.75;;;4.88;;
37943;SDS011;23767;42.024;23.086;2023-05-14T02:23:48;7.28;;;4.88;;
37943;SDS011;23767;42.024;23.086;2023-05-14T02:26:15;11.35;;;5.55;;
37943;SDS011;23767;42.024;23.086;2023-05-14T02:28:41;7.63;;;5.18;;
37943;SDS011;23767;42.024;23.086;2023-05-14T02:31:07;9.25;;;5.07;;
37943;SDS011;23767;42.024;23.086;2023-05-14T02:33:33;6.95;;;5.10;;
37943;SDS011;23767;42.024;23.086;2023-05-14T02:35:59;8.77;;;6.03;;
37943;SDS011;23767;42.024;23.086;2023-05-14T02:38:25;7.05;;;5.25;;
37943;SDS011;23767;42.024;23.086;2023-05-14T02:40:51;7.57;;;5.25;;
37943;SDS011;23767;42.024;23.086;2023-05-14T02:43:17;8.27;;;5.10;;
37943;SDS011;23767;42.024;23.086;2023-05-14T02:45:43;9.48;;;5.30;;
37943;SDS011;23767;42.024;23.086;2023-05-14T02:48:09;9.63;;;5.40;;
37943;SDS011;23767;42.024;23.086;2023-05-14T02:50:35;8.07;;;5.80;;
37943;SDS011;23767;42.024;23.086;2023-05-14T02:53:01;8.77;;;6.20;;
37943;SDS011;23767;42.024;23.086;2023-05-14T02:55:27;10.18;;;5.55;;
37943;SDS011;23767;42.024;23.086;2023-05-14T02:57:53;6.80;;;5.38;;
37943;SDS011;23767;42.024;23.086;2023-05-14T03:00:20;7.63;;;5.47;;
37943;SDS011;23767;42.024;23.086;2023-05-14T03:02:46;8.75;;;5.45;;
37943;SDS011;23767;42.024;23.086;2023-05-14T03:05:12;9.13;;;5.47;;
37943;SDS011;23767;42.024;23.086;2023-05-14T03:07:38;8.98;;;6.00;;
37943;SDS011;23767;42.024;23.086;2023-05-14T03:10:05;9.73;;;5.80;;
37943;SDS011;23767;42.024;23.086;2023-05-14T03:12:31;10.00;;;5.65;;
37943;SDS011;23767;42.024;23.086;2023-05-14T03:14:57;7.75;;;5.90;;
37943;SDS011;23767;42.024;23.086;2023-05-14T03:17:23;8.10;;;5.55;;
37943;SDS011;23767;42.024;23.086;2023-05-14T03:19:49;7.47;;;5.25;;
37943;SDS011;23767;42.024;23.086;2023-05-14T03:22:15;8.00;;;5.50;;
37943;SDS011;23767;42.024;23.086;2023-05-14T03:24:41;7.32;;;5.25;;
37943;SDS011;23767;42.024;23.086;2023-05-14T03:27:07;9.52;;;5.85;;
37943;SDS011;23767;42.024;23.086;2023-05-14T03:29:33;8.27;;;5.47;;
37943;SDS011;23767;42.024;23.086;2023-05-14T03:31:59;8.57;;;5.60;;
37943;SDS011;23767;42.024;23.086;2023-05-14T03:34:25;8.75;;;5.82;;
37943;SDS011;23767;42.024;23.086;2023-05-14T03:36:51;8.70;;;5.70;;
37943;SDS011;23767;42.024;23.086;2023-05-14T03:39:17;7.13;;;5.22;;
37943;SDS011;23767;42.024;23.086;2023-05-14T03:41:44;8.90;;;5.28;;
37943;SDS011;23767;42.024;23.086;2023-05-14T03:44:10;7.38;;;5.45;;
37943;SDS011;23767;42.024;23.086;2023-05-14T03:46:37;7.45;;;5.07;;
37943;SDS011;23767;42.024;23.086;2023-05-14T03:49:03;10.27;;;5.20;;
37943;SDS011;23767;42.024;23.086;2023-05-14T03:51:28;9.45;;;5.38;;
37943;SDS011;23767;42.024;23.086;2023-05-14T03:53:55;7.45;;;4.45;;
37943;SDS011;23767;42.024;23.086;2023-05-14T03:56:22;10.00;;;5.30;;
37943;SDS011;23767;42.024;23.086;2023-05-14T03:58:48;7.18;;;4.93;;
37943;SDS011;23767;42.024;23.086;2023-05-14T04:01:14;9.45;;;5.32;;
37943;SDS011;23767;42.024;23.086;2023-05-14T04:03:40;8.70;;;5.10;;
37943;SDS011;23767;42.024;23.086;2023-05-14T04:06:06;8.63;;;5.68;;
37943;SDS011;23767;42.024;23.086;2023-05-14T04:08:32;9.30;;;5.22;;
37943;SDS011;23767;42.024;23.086;2023-05-14T04:10:58;8.88;;;5.57;;
37943;SDS011;23767;42.024;23.086;2023-05-14T04:13:24;10.27;;;6.25;;
37943;SDS011;23767;42.024;23.086;2023-05-14T04:15:50;7.70;;;5.90;;
37943;SDS011;23767;42.024;23.086;2023-05-14T04:18:17;9.45;;;4.93;;
37943;SDS011;23767;42.024;23.086;2023-05-14T04:20:43;8.85;;;6.07;;
37943;SDS011;23767;42.024;23.086;2023-05-14T04:23:09;7.90;;;5.93;;
37943;SDS011;23767;42.024;23.086;2023-05-14T04:25:35;9.80;;;6.53;;
37943;SDS011;23767;42.024;23.086;2023-05-14T04:28:01;8.93;;;6.03;;
37943;SDS011;23767;42.024;23.086;2023-05-14T04:30:27;8.15;;;6.13;;
37943;SDS011;23767;42.024;23.086;2023-05-14T04:32:53;9.05;;;6.10;;
37943;SDS011;23767;42.024;23.086;2023-05-14T04:35:20;9.88;;;6.35;;
37943;SDS011;23767;42.024;23.086;2023-05-14T04:37:46;8.93;;;6.85;;
37943;SDS011;23767;42.024;23.086;2023-05-14T04:40:13;8.88;;;5.95;;
37943;SDS011;23767;42.024;23.086;2023-05-14T04:42:40;8.23;;;5.65;;
37943;SDS011;23767;42.024;23.086;2023-05-14T04:45:07;9.77;;;5.57;;
37943;SDS011;23767;42.024;23.086;2023-05-14T04:47:34;8.50;;;5.40;;
37943;SDS011;23767;42.024;23.086;2023-05-14T04:50:00;7.82;;;5.93;;
37943;SDS011;23767;42.024;23.086;2023-05-14T04:52:26;10.45;;;6.10;;
37943;SDS011;23767;42.024;23.086;2023-05-14T04:54:52;7.75;;;5.45;;
37943;SDS011;23767;42.024;23.086;2023-05-14T04:57:18;7.57;;;5.32;;
37943;SDS011;23767;42.024;23.086;2023-05-14T04:59:45;7.60;;;5.13;;
37943;SDS011;23767;42.024;23.086;2023-05-14T05:02:11;8.13;;;5.40;;
37943;SDS011;23767;42.024;23.086;2023-05-14T05:04:37;7.00;;;4.80;;
37943;SDS011;23767;42.024;23.086;2023-05-14T05:07:03;10.02;;;5.50;;
37943;SDS011;23767;42.024;23.086;2023-05-14T05:09:30;7.18;;;5.25;;
37943;SDS011;23767;42.024;23.086;2023-05-14T05:11:56;9.68;;;5.30;;
37943;SDS011;23767;42.024;23.086;2023-05-14T05:14:22;6.90;;;5.15;;
37943;SDS011;23767;42.024;23.086;2023-05-14T05:16:49;8.07;;;5.88;;
37943;SDS011;23767;42.024;23.086;2023-05-14T05:19:15;9.63;;;6.57;;
37943;SDS011;23767;42.024;23.086;2023-05-14T05:21:41;7.28;;;5.55;;
37943;SDS011;23767;42.024;23.086;2023-05-14T05:24:07;8.57;;;5.28;;
37943;SDS011;23767;42.024;23.086;2023-05-14T05:26:34;8.90;;;6.13;;
37943;SDS011;23767;42.024;23.086;2023-05-14T05:29:03;7.28;;;5.72;;
37943;SDS011;23767;42.024;23.086;2023-05-14T05:31:30;7.78;;;5.88;;
37943;SDS011;23767;42.024;23.086;2023-05-14T05:33:57;7.72;;;5.70;;
37943;SDS011;23767;42.024;23.086;2023-05-14T05:36:23;8.07;;;5.65;;
37943;SDS011;23767;42.024;23.086;2023-05-14T05:38:49;9.00;;;6.10;;
37943;SDS011;23767;42.024;23.086;2023-05-14T05:41:15;8.45;;;5.32;;
37943;SDS011;23767;42.024;23.086;2023-05-14T05:43:41;11.32;;;6.30;;
37943;SDS011;23767;42.024;23.086;2023-05-14T05:46:07;10.07;;;6.85;;
37943;SDS011;23767;42.024;23.086;2023-05-14T05:48:33;9.48;;;6.43;;
37943;SDS011;23767;42.024;23.086;2023-05-14T05:50:59;9.73;;;6.63;;
37943;SDS011;23767;42.024;23.086;2023-05-14T05:53:25;9.00;;;6.68;;
37943;SDS011;23767;42.024;23.086;2023-05-14T05:55:52;8.95;;;6.13;;
37943;SDS011;23767;42.024;23.086;2023-05-14T05:58:18;8.80;;;6.15;;
37943;SDS011;23767;42.024;23.086;2023-05-14T06:00:44;10.68;;;6.45;;
37943;SDS011;23767;42.024;23.086;2023-05-14T06:03:13;8.70;;;5.90;;
37943;SDS011;23767;42.024;23.086;2023-05-14T06:05:39;10.27;;;5.97;;
37943;SDS011;23767;42.024;23.086;2023-05-14T06:08:05;9.05;;;6.00;;
37943;SDS011;23767;42.024;23.086;2023-05-14T06:10:32;7.85;;;5.97;;
37943;SDS011;23767;42.024;23.086;2023-05-14T06:12:58;7.82;;;5.60;;
37943;SDS011;23767;42.024;23.086;2023-05-14T06:15:24;7.47;;;5.35;;
37943;SDS011;23767;42.024;23.086;2023-05-14T06:17:50;8.52;;;5.15;;
37943;SDS011;23767;42.024;23.086;2023-05-14T06:20:17;8.30;;;5.30;;
37943;SDS011;23767;42.024;23.086;2023-05-14T06:22:44;9.77;;;5.45;;
37943;SDS011;23767;42.024;23.086;2023-05-14T06:25:10;6.47;;;5.22;;
37943;SDS011;23767;42.024;23.086;2023-05-14T06:27:36;8.43;;;4.82;;
37943;SDS011;23767;42.024;23.086;2023-05-14T06:30:02;8.25;;;5.50;;
37943;SDS011;23767;42.024;23.086;2023-05-14T06:32:28;9.25;;;5.38;;
37943;SDS011;23767;42.024;23.086;2023-05-14T06:34:55;8.98;;;5.22;;
37943;SDS011;23767;42.024;23.086;2023-05-14T06:37:21;7.20;;;5.13;;
37943;SDS011;23767;42.024;23.086;2023-05-14T06:39:47;6.32;;;4.43;;
37943;SDS011;23767;42.024;23.086;2023-05-14T06:42:14;7.78;;;4.85;;
37943;SDS011;23767;42.024;23.086;2023-05-14T06:44:40;7.43;;;4.22;;
37943;SDS011;23767;42.024;23.086;2023-05-14T06:47:06;6.13;;;4.15;;
37943;SDS011;23767;42.024;23.086;2023-05-14T06:49:33;6.55;;;4.07;;
37943;SDS011;23767;42.024;23.086;2023-05-14T06:51:59;6.72;;;4.80;;
37943;SDS011;23767;42.024;23.086;2023-05-14T06:54:25;9.48;;;4.85;;
37943;SDS011;23767;42.024;23.086;2023-05-14T06:56:51;7.22;;;4.60;;
37943;SDS011;23767;42.024;23.086;2023-05-14T06:59:17;7.05;;;4.60;;
37943;SDS011;23767;42.024;23.086;2023-05-14T07:01:43;7.55;;;5.18;;
37943;SDS011;23767;42.024;23.086;2023-05-14T07:04:09;6.85;;;4.35;;
37943;SDS011;23767;42.024;23.086;2023-05-14T07:06:35;7.57;;;4.15;;
37943;SDS011;23767;42.024;23.086;2023-05-14T07:09:01;6.13;;;4.38;;
37943;SDS011;23767;42.024;23.086;2023-05-14T07:11:27;6.93;;;4.78;;
37943;SDS011;23767;42.024;23.086;2023-05-14T07:13:53;9.32;;;4.95;;
37943;SDS011;23767;42.024;23.086;2023-05-14T07:16:19;7.15;;;4.57;;
37943;SDS011;23767;42.024;23.086;2023-05-14T07:18:45;6.32;;;4.45;;
37943;SDS011;23767;42.024;23.086;2023-05-14T07:21:11;6.63;;;4.75;;
37943;SDS011;23767;42.024;23.086;2023-05-14T07:23:37;9.80;;;5.35;;
37943;SDS011;23767;42.024;23.086;2023-05-14T07:26:04;7.70;;;5.30;;
37943;SDS011;23767;42.024;23.086;2023-05-14T07:28:30;7.50;;;5.07;;
37943;SDS011;23767;42.024;23.086;2023-05-14T07:30:56;7.97;;;5.53;;
37943;SDS011;23767;42.024;23.086;2023-05-14T07:33:23;10.63;;;5.55;;
37943;SDS011;23767;42.024;23.086;2023-05-14T07:35:49;9.70;;;5.80;;
37943;SDS011;23767;42.024;23.086;2023-05-14T07:38:15;8.77;;;5.57;;
37943;SDS011;23767;42.024;23.086;2023-05-14T07:40:42;9.50;;;5.03;;
37943;SDS011;23767;42.024;23.086;2023-05-14T07:43:08;10.18;;;6.28;;
37943;SDS011;23767;42.024;23.086;2023-05-14T07:45:37;7.70;;;5.95;;
37943;SDS011;23767;42.024;23.086;2023-05-14T07:48:04;7.55;;;5.32;;
37943;SDS011;23767;42.024;23.086;2023-05-14T07:50:30;8.35;;;5.65;;
37943;SDS011;23767;42.024;23.086;2023-05-14T07:52:57;7.30;;;4.85;;
37943;SDS011;23767;42.024;23.086;2023-05-14T07:55:23;7.90;;;4.80;;
37943;SDS011;23767;42.024;23.086;2023-05-14T07:57:49;7.38;;;4.45;;
37943;SDS011;23767;42.024;23.086;2023-05-14T08:00:15;7.03;;;4.35;;
37943;SDS011;23767;42.024;23.086;2023-05-14T08:02:41;7.88;;;3.90;;
37943;SDS011;23767;42.024;23.086;2023-05-14T08:05:07;6.50;;;3.97;;
37943;SDS011;23767;42.024;23.086;2023-05-14T08:07:34;6.57;;;4.07;;
37943;SDS011;23767;42.024;23.086;2023-05-14T08:10:00;6.88;;;4.45;;
37943;SDS011;23767;42.024;23.086;2023-05-14T08:12:26;6.32;;;4.47;;
37943;SDS011;23767;42.024;23.086;2023-05-14T08:14:53;8.07;;;4.65;;
37943;SDS011;23767;42.024;23.086;2023-05-14T08:17:20;8.00;;;4.15;;
37943;SDS011;23767;42.024;23.086;2023-05-14T08:19:46;5.88;;;4.38;;
37943;SDS011;23767;42.024;23.086;2023-05-14T08:22:12;6.72;;;3.85;;
37943;SDS011;23767;42.024;23.086;2023-05-14T08:24:38;5.80;;;3.78;;
37943;SDS011;23767;42.024;23.086;2023-05-14T08:27:04;6.15;;;4.03;;
37943;SDS011;23767;42.024;23.086;2023-05-14T08:29:30;6.00;;;4.35;;
37943;SDS011;23767;42.024;23.086;2023-05-14T08:31:56;6.45;;;5.13;;
37943;SDS011;23767;42.024;23.086;2023-05-14T08:34:22;7.05;;;4.97;;
37943;SDS011;23767;42.024;23.086;2023-05-14T08:36:48;7.47;;;4.78;;
37943;SDS011;23767;42.024;23.086;2023-05-14T08:39:15;9.32;;;5.90;;
37943;SDS011;23767;42.024;23.086;2023-05-14T08:41:41;9.70;;;5.68;;
37943;SDS011;23767;42.024;23.086;2023-05-14T08:46:36;8.80;;;5.93;;
37943;SDS011;23767;42.024;23.086;2023-05-14T08:51:32;8.18;;;5.32;;
37943;SDS011;23767;42.024;23.086;2023-05-14T08:53:58;8.43;;;4.97;;
37943;SDS011;23767;42.024;23.086;2023-05-14T08:56:27;6.72;;;4.80;;
37943;SDS011;23767;42.024;23.086;2023-05-14T08:58:54;7.03;;;4.57;;
37943;SDS011;23767;42.024;23.086;2023-05-14T09:01:20;7.63;;;4.68;;
37943;SDS011;23767;42.024;23.086;2023-05-14T09:03:46;6.78;;;4.28;;
37943;SDS011;23767;42.024;23.086;2023-05-14T09:06:13;7.07;;;4.40;;
37943;SDS011;23767;42.024;23.086;2023-05-14T09:08:39;6.22;;;4.00;;
37943;SDS011;23767;42.024;23.086;2023-05-14T09:11:05;7.30;;;4.65;;
37943;SDS011;23767;42.024;23.086;2023-05-14T09:13:31;7.15;;;4.57;;
37943;SDS011;23767;42.024;23.086;2023-05-14T09:15:57;11.57;;;5.03;;
37943;SDS011;23767;42.024;23.086;2023-05-14T09:18:24;7.35;;;5.10;;
37943;SDS011;23767;42.024;23.086;2023-05-14T09:20:50;6.32;;;4.20;;
37943;SDS011;23767;42.024;23.086;2023-05-14T09:23:16;7.22;;;4.07;;
37943;SDS011;23767;42.024;23.086;2023-05-14T09:25:42;7.38;;;4.05;;
37943;SDS011;23767;42.024;23.086;2023-05-14T09:28:08;6.95;;;3.58;;
37943;SDS011;23767;42.024;23.086;2023-05-14T09:30:35;6.22;;;4.10;;
37943;SDS011;23767;42.024;23.086;2023-05-14T09:33:01;7.90;;;4.10;;
37943;SDS011;23767;42.024;23.086;2023-05-14T09:35:28;6.07;;;3.95;;
37943;SDS011;23767;42.024;23.086;2023-05-14T09:37:54;5.82;;;3.65;;
37943;SDS011;23767;42.024;23.086;2023-05-14T09:40:21;6.78;;;4.18;;
37943;SDS011;23767;42.024;23.086;2023-05-14T09:42:47;7.63;;;3.83;;
37943;SDS011;23767;42.024;23.086;2023-05-14T09:45:14;5.43;;;3.30;;
37943;SDS011;23767;42.024;23.086;2023-05-14T09:47:40;6.32;;;3.95;;
37943;SDS011;23767;42.024;23.086;2023-05-14T09:50:06;7.63;;;4.22;;
37943;SDS011;23767;42.024;23.086;2023-05-14T09:52:33;5.78;;;3.72;;
37943;SDS011;23767;42.024;23.086;2023-05-14T09:54:59;6.13;;;4.00;;
37943;SDS011;23767;42.024;23.086;2023-05-14T09:57:26;6.43;;;4.60;;
37943;SDS011;23767;42.024;23.086;2023-05-14T09:59:52;7.72;;;4.45;;
37943;SDS011;23767;42.024;23.086;2023-05-14T10:02:22;5.40;;;4.03;;
37943;SDS011;23767;42.024;23.086;2023-05-14T10:04:49;7.57;;;3.80;;
37943;SDS011;23767;42.024;23.086;2023-05-14T10:07:21;6.93;;;3.85;;
37943;SDS011;23767;42.024;23.086;2023-05-14T10:09:48;6.13;;;3.40;;
37943;SDS011;23767;42.024;23.086;2023-05-14T10:12:17;7.75;;;4.00;;
37943;SDS011;23767;42.024;23.086;2023-05-14T10:14:46;5.25;;;3.20;;
37943;SDS011;23767;42.024;23.086;2023-05-14T10:17:18;5.65;;;3.60;;
37943;SDS011;23767;42.024;23.086;2023-05-14T10:19:46;5.45;;;3.20;;
37943;SDS011;23767;42.024;23.086;2023-05-14T10:22:12;5.03;;;3.30;;
37943;SDS011;23767;42.024;23.086;2023-05-14T10:24:39;5.68;;;3.30;;
37943;SDS011;23767;42.024;23.086;2023-05-14T10:27:06;8.57;;;3.42;;
37943;SDS011;23767;42.024;23.086;2023-05-14T10:29:33;6.75;;;3.63;;
37943;SDS011;23767;42.024;23.086;2023-05-14T10:32:00;5.28;;;3.15;;
37943;SDS011;23767;42.024;23.086;2023-05-14T10:37:01;6.10;;;3.70;;
37943;SDS011;23767;42.024;23.086;2023-05-14T10:39:40;5.55;;;2.95;;
37943;SDS011;23767;42.024;23.086;2023-05-14T10:42:09;5.90;;;3.08;;
37943;SDS011;23767;42.024;23.086;2023-05-14T10:44:36;5.97;;;2.92;;
37943;SDS011;23767;42.024;23.086;2023-05-14T10:47:04;5.75;;;2.88;;
37943;SDS011;23767;42.024;23.086;2023-05-14T10:49:31;5.95;;;3.03;;
37943;SDS011;23767;42.024;23.086;2023-05-14T10:51:58;5.13;;;2.50;;
37943;SDS011;23767;42.024;23.086;2023-05-14T10:54:26;5.18;;;2.92;;
37943;SDS011;23767;42.024;23.086;2023-05-14T10:56:52;4.75;;;2.60;;
37943;SDS011;23767;42.024;23.086;2023-05-14T10:59:18;5.22;;;2.70;;
37943;SDS011;23767;42.024;23.086;2023-05-14T11:01:44;6.55;;;3.00;;
37943;SDS011;23767;42.024;23.086;2023-05-14T11:04:17;6.03;;;2.80;;
37943;SDS011;23767;42.024;23.086;2023-05-14T11:06:44;6.95;;;2.92;;
37943;SDS011;23767;42.024;23.086;2023-05-14T11:09:11;6.15;;;3.25;;
37943;SDS011;23767;42.024;23.086;2023-05-14T11:11:38;7.00;;;3.83;;
37943;SDS011;23767;42.024;23.086;2023-05-14T11:14:04;9.95;;;3.42;;
37943;SDS011;23767;42.024;23.086;2023-05-14T11:16:30;5.32;;;3.20;;
37943;SDS011;23767;42.024;23.086;2023-05-14T11:18:59;6.82;;;3.10;;
37943;SDS011;23767;42.024;23.086;2023-05-14T11:21:27;8.10;;;3.58;;
37943;SDS011;23767;42.024;23.086;2023-05-14T11:23:53;8.52;;;3.50;;
37943;SDS011;23767;42.024;23.086;2023-05-14T11:26:19;8.52;;;3.17;;
37943;SDS011;23767;42.024;23.086;2023-05-14T11:28:46;6.20;;;3.45;;
37943;SDS011;23767;42.024;23.086;2023-05-14T11:31:12;8.10;;;3.78;;
37943;SDS011;23767;42.024;23.086;2023-05-14T11:33:38;6.65;;;3.80;;
37943;SDS011;23767;42.024;23.086;2023-05-14T11:36:04;7.43;;;3.60;;
37943;SDS011;23767;42.024;23.086;2023-05-14T11:38:30;8.45;;;3.88;;
37943;SDS011;23767;42.024;23.086;2023-05-14T11:40:57;5.95;;;3.45;;
37943;SDS011;23767;42.024;23.086;2023-05-14T11:43:24;8.25;;;3.58;;
37943;SDS011;23767;42.024;23.086;2023-05-14T11:45:53;9.32;;;3.40;;
37943;SDS011;23767;42.024;23.086;2023-05-14T11:48:20;6.57;;;3.50;;
37943;SDS011;23767;42.024;23.086;2023-05-14T11:50:46;5.22;;;3.13;;
37943;SDS011;23767;42.024;23.086;2023-05-14T11:53:19;6.90;;;2.80;;
37943;SDS011;23767;42.024;23.086;2023-05-14T11:55:49;6.50;;;2.90;;
37943;SDS011;23767;42.024;23.086;2023-05-14T11:58:16;4.78;;;2.90;;
37943;SDS011;23767;42.024;23.086;2023-05-14T12:00:48;9.57;;;2.95;;
37943;SDS011;23767;42.024;23.086;2023-05-14T12:03:14;4.28;;;2.90;;
37943;SDS011;23767;42.024;23.086;2023-05-14T12:05:53;10.70;;;3.45;;
37943;SDS011;23767;42.024;23.086;2023-05-14T12:08:20;7.15;;;3.08;;
37943;SDS011;23767;42.024;23.086;2023-05-14T12:10:46;7.72;;;3.22;;
37943;SDS011;23767;42.024;23.086;2023-05-14T12:13:15;6.00;;;3.28;;
37943;SDS011;23767;42.024;23.086;2023-05-14T12:15:46;5.68;;;3.00;;
37943;SDS011;23767;42.024;23.086;2023-05-14T12:18:12;7.10;;;3.63;;
37943;SDS011;23767;42.024;23.086;2023-05-14T12:20:38;9.73;;;3.22;;
37943;SDS011;23767;42.024;23.086;2023-05-14T12:23:08;7.50;;;3.25;;
37943;SDS011;23767;42.024;23.086;2023-05-14T12:25:34;6.43;;;3.78;;
37943;SDS011;23767;42.024;23.086;2023-05-14T12:28:12;8.82;;;3.53;;
37943;SDS011;23767;42.024;23.086;2023-05-14T12:30:38;9.32;;;3.70;;
37943;SDS011;23767;42.024;23.086;2023-05-14T12:33:05;8.02;;;3.58;;
37943;SDS011;23767;42.024;23.086;2023-05-14T12:35:31;7.95;;;3.50;;
37943;SDS011;23767;42.024;23.086;2023-05-14T12:37:57;7.43;;;3.38;;
37943;SDS011;23767;42.024;23.086;2023-05-14T12:40:23;11.57;;;3.33;;
37943;SDS011;23767;42.024;23.086;2023-05-14T12:42:50;4.88;;;2.92;;
37943;SDS011;23767;42.024;23.086;2023-05-14T12:45:16;8.88;;;3.28;;
37943;SDS011;23767;42.024;23.086;2023-05-14T12:47:42;7.03;;;3.75;;
37943;SDS011;23767;42.024;23.086;2023-05-14T12:50:08;7.85;;;3.47;;
37943;SDS011;23767;42.024;23.086;2023-05-14T12:52:34;9.15;;;3.50;;
37943;SDS011;23767;42.024;23.086;2023-05-14T12:55:00;5.65;;;3.25;;
37943;SDS011;23767;42.024;23.086;2023-05-14T12:57:26;5.72;;;3.47;;
37943;SDS011;23767;42.024;23.086;2023-05-14T12:59:53;8.32;;;3.58;;
37943;SDS011;23767;42.024;23.086;2023-05-14T13:02:19;8.93;;;3.50;;
37943;SDS011;23767;42.024;23.086;2023-05-14T13:04:45;8.30;;;3.55;;
37943;SDS011;23767;42.024;23.086;2023-05-14T13:07:12;8.60;;;3.70;;
37943;SDS011;23767;42.024;23.086;2023-05-14T13:09:38;13.73;;;4.20;;
37943;SDS011;23767;42.024;23.086;2023-05-14T13:12:04;7.15;;;3.78;;
37943;SDS011;23767;42.024;23.086;2023-05-14T13:14:30;8.80;;;3.38;;
37943;SDS011;23767;42.024;23.086;2023-05-14T13:16:56;6.72;;;3.67;;
37943;SDS011;23767;42.024;23.086;2023-05-14T13:19:22;8.55;;;4.63;;
37943;SDS011;23767;42.024;23.086;2023-05-14T13:21:48;7.38;;;3.70;;
37943;SDS011;23767;42.024;23.086;2023-05-14T13:24:14;6.93;;;3.85;;
37943;SDS011;23767;42.024;23.086;2023-05-14T13:26:41;6.05;;;4.10;;
37943;SDS011;23767;42.024;23.086;2023-05-14T13:29:08;7.15;;;4.43;;
37943;SDS011;23767;42.024;23.086;2023-05-14T13:31:35;6.85;;;4.05;;
37943;SDS011;23767;42.024;23.086;2023-05-14T13:34:01;7.38;;;4.18;;
37943;SDS011;23767;42.024;23.086;2023-05-14T13:36:27;9.70;;;4.35;;
37943;SDS011;23767;42.024;23.086;2023-05-14T13:38:55;7.25;;;4.68;;
37943;SDS011;23767;42.024;23.086;2023-05-14T13:41:21;6.95;;;4.20;;
37943;SDS011;23767;42.024;23.086;2023-05-14T13:43:47;6.97;;;4.15;;
37943;SDS011;23767;42.024;23.086;2023-05-14T13:46:13;6.25;;;4.22;;
37943;SDS011;23767;42.024;23.086;2023-05-14T13:48:39;6.53;;;4.60;;
37943;SDS011;23767;42.024;23.086;2023-05-14T13:51:06;11.75;;;4.40;;
37943;SDS011;23767;42.024;23.086;2023-05-14T13:53:31;6.00;;;3.85;;
37943;SDS011;23767;42.024;23.086;2023-05-14T13:55:57;7.22;;;4.80;;
37943;SDS011;23767;42.024;23.086;2023-05-14T13:58:25;8.82;;;3.75;;
37943;SDS011;23767;42.024;23.086;2023-05-14T14:00:52;5.28;;;3.50;;
37943;SDS011;23767;42.024;23.086;2023-05-14T14:03:18;7.28;;;3.95;;
37943;SDS011;23767;42.024;23.086;2023-05-14T14:05:44;9.82;;;4.15;;
37943;SDS011;23767;42.024;23.086;2023-05-14T14:08:10;6.82;;;3.92;;
37943;SDS011;23767;42.024;23.086;2023-05-14T14:10:36;5.68;;;3.88;;
37943;SDS011;23767;42.024;23.086;2023-05-14T14:13:06;6.82;;;4.30;;
37943;SDS011;23767;42.024;23.086;2023-05-14T14:15:32;7.18;;;4.28;;
37943;SDS011;23767;42.024;23.086;2023-05-14T14:17:58;6.93;;;4.10;;
37943;SDS011;23767;42.024;23.086;2023-05-14T14:20:24;6.43;;;4.10;;
37943;SDS011;23767;42.024;23.086;2023-05-14T14:22:50;6.10;;;4.25;;
37943;SDS011;23767;42.024;23.086;2023-05-14T14:25:16;6.80;;;4.13;;
37943;SDS011;23767;42.024;23.086;2023-05-14T14:27:42;8.75;;;4.28;;
37943;SDS011;23767;42.024;23.086;2023-05-14T14:30:09;5.43;;;3.55;;
37943;SDS011;23767;42.024;23.086;2023-05-14T14:32:48;6.72;;;4.30;;
37943;SDS011;23767;42.024;23.086;2023-05-14T14:35:15;9.60;;;4.95;;
37943;SDS011;23767;42.024;23.086;2023-05-14T14:37:41;7.53;;;4.25;;
37943;SDS011;23767;42.024;23.086;2023-05-14T14:40:09;7.25;;;4.30;;
37943;SDS011;23767;42.024;23.086;2023-05-14T14:42:36;7.40;;;4.38;;
37943;SDS011;23767;42.024;23.086;2023-05-14T14:45:05;8.07;;;4.70;;